Terminal Aerodrome Forecast
Issued by NWS

Home | Current Version | Previous Version | Text Only | Print | Product List | Glossary On
Versions: 1 2 3 4 5 6 7 8 9 10 11 12 13 14 15 16 17 18 19 20 21 22 23 24
000
FTUS45 KBOI 261121
TAFMYL
TAF
KMYL 261121Z 2612/2712 VRB03KT P6SM SKC
     FM262200 20008KT P6SM SCT060 BKN100
     FM270000 VRB06KT P6SM VCTS BKN060CB OVC100
      TEMPO 2700/2704 VRB15G25KT -TSRA BKN070CB
     FM270500 VRB05KT P6SM OVC100=

USA.gov is the U.S. government's official web portal to all federal, state and local government web resources and services.